Historyczne dane pomiarowe

Dodano dane terminowe – wersja testowa.

Dane z okresu 1951-2018

Wersja bazy: 1.27 [2018-11-28, lista zmian], aktualizacja planowana na 2018-12-07

Dane meteo z obszaru Polski uzyskane na podstawie danych udostępnionych przez Instytut Meteorologii i Gospodarki Wodnej – Państwowy Instytut Badawczy.

 

Wybierz Datę:    

       

TemperaturaWilgotnośćWiatrCiśnienieOpadyŚniegCzas trwania zjawisk
 Stacja t tx tn tng RH VA  wxwx mslp ppp RRR   cm mm wxwxwxwxwxwxwx
1960-11-08 5.2 6.0 4.7- 91.5- 8.0 2.7---- 0.8------------
1960-11-09 5.2 7.8 2.1- 86.5- 6.0 0.7---- 0.8------------
1960-11-10 6.1 9.7 1.7- 88.5- 6.0 0.3---- 0.0------------
1960-11-11 7.0 7.6 4.4- 96.3- 8.0 0.0---- 0.0------------
1960-11-12 6.6 10.3 4.7- 91.5- 5.7 0.7---- 0.0------------
1960-11-13 7.4 13.3 3.4- 83.8- 5.0 2.0---- 0.0------------
1960-11-14 7.0 8.2 4.6- 97.0- 8.0 0.7---- 31.2------------
1960-11-15 5.5 6.5 5.2- 96.3- 8.0 0.7---- 2.0------------
1960-11-16 6.6 7.6 5.1- 94.0- 8.0 0.0---- 0.8------------
1960-11-17 5.0 6.6 3.9- 95.0- 8.0 1.7---- 2.7------------
1960-11-18 4.5 6.8 1.3- 85.3- 4.7 0.7---- 0.6------------
1960-11-19 5.1 7.3 2.3- 88.0- 3.0 3.0---- 0.0------------
1960-11-20 4.5 5.8 2.8- 92.8- 8.0 2.0---- 2.2------------
1960-11-21 1.6 5.3 -0.9- 81.3- 4.3 0.7---- 0.0------------
1960-11-22 -0.4 3.8 -4.7- 85.5- 3.7 0.7---- 0.0------------
1960-11-23 1.1 3.4 -0.1- 91.3- 5.3 0.7---- 0.0------------
1960-11-24 0.7 3.3 -0.9- 90.3- 5.0 0.0---- 0.0------------
1960-11-25 4.9 8.3 -0.8- 84.3- 6.3 2.0---- 0.0------------
1960-11-26 6.5 7.4 4.9- 78.3- 4.0 14.3---- 0.0------------
1960-11-27 7.2 7.6 5.4- 79.3- 5.0 10.7---- 0.9------------
1960-11-28 6.6 8.3 5.8- 88.5- 7.0 5.0---- 4.7------------
1960-11-29 2.5 5.8 0.2- 87.5- 8.0 1.0---- 4.7------------
1960-11-30 3.7 5.4 2.1- 82.5- 8.0 4.7---- 6.7------------
1960-12-01 5.5 6.4 2.4- 71.0- 4.7 8.7---- 0.0------------
1960-12-02 7.2 11.1 4.9- 59.5- 0.7 12.3---- 0.0------------
1960-12-03 4.1 7.6 1.8- 76.0- 3.0 1.7---- 0.0------------
1960-12-04 6.0 7.4 3.3- 63.3- 6.0 17.0---- 0.0------------
1960-12-05 7.9 9.9 5.4- 73.3- 4.0 7.7---- 0.0------------
1960-12-06 10.0 11.5 7.0- 65.3- 3.7 8.0---- 0.0------------
1960-12-07 11.0 14.7 6.4- 45.8- 5.3 5.0---- 0.0------------
206.3 ms

 

Źródłem pochodzenia danych jest Instytut Meteorologii i Gospodarki Wodnej – Państwowy Instytut Badawczy. Dane Instytutu Meteorologii i Gospodarki Wodnej – Państwowego Instytutu Badawczego zostały przetworzone.

Dane źródłowe można odnaleźć na stronie https://dane.imgw.pl